Time;durP1;ratioP1;P1;durP2;ratioP2;P2;SDS_P1;SDS_P2;PMS_P1;PMS_P2;Temp;Humidity;BMP_temperature;BMP_pressure;BME280_temperature;BME280_humidity;BME280_pressure;Samples;Min_cycle;Max_cycle;Signal;HPM_P1;HPM_P2
2021/11/17 02:26:33;;;;;;;152.70;48.30;;;;;;;1.33;87.78;100667.82;104194;1317;138013;-63
2021/11/17 02:29:26;;;;;;;177.00;46.90;;;;;;;1.32;87.55;100666.27;104363;1315;108924;-63
2021/11/17 02:32:11;;;;;;;110.90;46.40;;;;;;;1.28;87.84;100669.31;104231;1315;141332;-63
2021/11/17 02:35:00;;;;;;;104.30;44.00;;;;;;;1.27;87.64;100668.27;104331;1319;94722;-63
2021/11/17 02:37:45;;;;;;;96.30;44.10;;;;;;;1.24;87.89;100663.59;103841;1319;138387;-63
2021/11/17 02:40:30;;;;;;;102.30;41.70;;;;;;;1.21;87.73;100670.58;104326;1315;109014;-63
2021/11/17 02:43:15;;;;;;;82.50;39.90;;;;;;;1.19;87.77;100677.41;104587;1312;141140;-64
2021/11/17 02:46:08;;;;;;;113.00;41.70;;;;;;;1.16;87.57;100674.98;104664;1313;95187;-62
2021/11/17 02:48:53;;;;;;;159.50;43.10;;;;;;;1.13;87.60;100670.33;104713;1315;137705;-63
2021/11/17 02:52:02;;;;;;;115.20;42.10;;;;;;;1.10;87.55;100671.98;104458;1313;112166;-63
2021/11/17 02:54:47;;;;;;;96.70;41.50;;;;;;;1.08;87.57;100667.16;103273;1315;138798;-65
2021/11/17 02:57:35;;;;;;;95.20;42.80;;;;;;;1.08;87.68;100664.61;103292;1315;108864;-63
2021/11/17 03:00:31;;;;;;;98.80;41.40;;;;;;;1.07;87.77;100661.84;103308;1316;139036;-64
2021/11/17 03:03:18;;;;;;;91.60;40.90;;;;;;;1.06;87.79;100661.81;103812;1314;96576;-64
2021/11/17 03:06:16;;;;;;;126.90;42.50;;;;;;;1.04;87.67;100665.05;103461;1315;110982;-62
2021/11/17 03:09:05;;;;;;;124.90;42.30;;;;;;;1.03;88.15;100665.73;103966;1308;109106;-63
2021/11/17 03:11:50;;;;;;;110.80;40.00;;;;;;;0.97;88.14;100671.31;103419;1315;108961;-64
2021/11/17 03:14:55;;;;;;;90.10;39.80;;;;;;;0.89;87.90;100665.55;103857;1313;138834;-63
2021/11/17 03:17:40;;;;;;;105.60;41.80;;;;;;;0.84;87.87;100658.96;104794;1315;95080;-64
2021/11/17 03:20:26;;;;;;;102.60;39.60;;;;;;;0.85;88.16;100656.23;103816;1315;208051;-62
2021/11/17 03:23:10;;;;;;;89.90;36.90;;;;;;;0.87;88.10;100660.38;103453;1316;108962;-65
2021/11/17 03:25:59;;;;;;;121.10;39.40;;;;;;;0.86;88.21;100660.36;103502;1315;138993;-64
2021/11/17 03:28:47;;;;;;;139.80;41.50;;;;;;;0.83;88.00;100655.70;103387;1317;96520;-64
2021/11/17 03:31:48;;;;;;;118.20;40.20;;;;;;;0.80;88.18;100660.11;103293;1313;138096;-65
2021/11/17 03:34:48;;;;;;;101.10;40.10;;;;;;;0.77;88.03;100655.80;103333;1313;114073;-64
2021/11/17 03:37:45;;;;;;;82.10;38.60;;;;;;;0.77;87.97;100661.62;103224;1316;138397;-65
2021/11/17 03:40:42;;;;;;;82.50;39.50;;;;;;;0.79;88.02;100653.77;103370;1311;108812;-64
2021/11/17 03:43:41;;;;;;;82.30;38.80;;;;;;;0.88;88.35;100659.69;103179;1315;138441;-64
2021/11/17 03:46:40;;;;;;;92.90;40.80;;;;;;;0.93;88.22;100669.88;103403;1314;96521;-65
2021/11/17 03:49:29;;;;;;;147.80;42.50;;;;;;;0.97;88.35;100678.66;104275;1308;137595;-64
2021/11/17 03:52:17;;;;;;;155.70;42.10;;;;;;;0.96;87.84;100679.00;103356;1313;108164;-65
2021/11/17 03:55:15;;;;;;;96.90;40.10;;;;;;;0.90;87.95;100669.33;103509;1313;138128;-65
2021/11/17 03:57:58;;;;;;;82.30;39.30;;;;;;;0.90;87.81;100676.02;104650;1313;95101;-63
2021/11/17 04:00:48;;;;;;;96.90;40.30;;;;;;;0.90;87.87;100682.70;104049;1317;140223;-65
2021/11/17 04:03:37;;;;;;;83.80;38.50;;;;;;;0.93;87.83;100677.08;103306;1312;112150;-65
2021/11/17 04:06:22;;;;;;;79.20;36.60;;;;;;;0.92;87.63;100663.38;103299;1316;109421;-64
2021/11/17 04:09:09;;;;;;;84.40;37.30;;;;;;;0.90;87.75;100666.25;103173;1311;138315;-65
2021/11/17 04:11:57;;;;;;;93.40;39.80;;;;;;;0.87;87.54;100663.80;103338;1312;96601;-65
2021/11/17 04:14:45;;;;;;;98.20;41.70;;;;;;;0.83;87.47;100666.65;103420;1313;137648;-64
2021/11/17 04:17:40;;;;;;;86.40;39.00;;;;;;;0.73;87.40;100657.28;103568;1314;110987;-64
2021/11/17 04:20:25;;;;;;;81.00;39.00;;;;;;;0.66;87.44;100654.94;103292;1313;138217;-64
2021/11/17 04:23:18;;;;;;;86.80;39.70;;;;;;;0.61;87.66;100648.55;103261;1312;109941;-64
2021/11/17 04:26:04;;;;;;;76.70;37.80;;;;;;;0.56;87.61;100645.91;104497;1314;138362;-63
2021/11/17 04:28:55;;;;;;;79.60;39.50;;;;;;;0.51;87.76;100639.33;104709;1312;95208;-63
2021/11/17 04:31:48;;;;;;;95.70;40.00;;;;;;;0.50;87.97;100639.65;103909;1310;138278;-62
2021/11/17 04:34:49;;;;;;;106.20;39.80;;;;;;;0.46;88.03;100639.25;104565;1313;108455;-63
2021/11/17 04:37:51;;;;;;;96.60;39.10;;;;;;;0.40;88.33;100634.21;103271;1317;138175;-62
2021/11/17 04:40:54;;;;;;;86.80;37.80;;;;;;;0.34;88.41;100626.75;102734;1324;96534;-62
2021/11/17 04:43:49;;;;;;;82.90;38.90;;;;;;;0.29;88.72;100626.67;102739;1318;138845;-63
2021/11/17 04:46:35;;;;;;;86.70;39.60;;;;;;;0.27;88.69;100618.78;103274;1324;109012;-63
2021/11/17 04:49:20;;;;;;;76.90;37.80;;;;;;;0.27;88.87;100615.19;104150;1317;139451;-63
2021/11/17 04:52:05;;;;;;;85.20;39.70;;;;;;;0.25;89.01;100616.88;104254;1321;110388;-63
2021/11/17 04:54:52;;;;;;;128.50;41.10;;;;;;;0.23;88.53;100625.23;103153;1321;138124;-63
2021/11/17 04:57:49;;;;;;;88.20;38.70;;;;;;;0.19;88.79;100620.36;102975;1316;96655;-63
2021/11/17 05:00:40;;;;;;;;;;;;;;;0.14;88.97;100614.29;104028;1317;111246;-63
2021/11/17 05:03:25;;;;;;;78.60;38.30;;;;;;;0.13;89.04;100616.67;103575;1320;125653;-63
2021/11/17 05:06:09;;;;;;;72.10;37.70;;;;;;;0.13;89.28;100617.88;103094;1324;109107;-63
2021/11/17 05:08:50;;;;;;;66.60;36.20;;;;;;;0.13;88.96;100617.53;104067;1320;138295;-63
2021/11/17 05:11:34;;;;;;;83.30;36.60;;;;;;;0.14;88.59;100612.75;104244;1316;94908;-63
2021/11/17 05:14:17;;;;;;;74.10;37.10;;;;;;;0.16;88.78;100615.85;104216;1317;138924;-63
2021/11/17 05:17:04;;;;;;;88.10;39.10;;;;;;;0.16;88.53;100609.53;104116;1311;107893;-63
2021/11/17 05:19:43;;;;;;;98.30;40.00;;;;;;;0.16;88.46;100605.77;103346;1311;138107;-63
2021/11/17 05:22:29;;;;;;;85.00;40.50;;;;;;;0.15;88.57;100603.70;103945;1311;94714;-63
2021/11/17 05:25:14;;;;;;;71.80;39.20;;;;;;;0.14;88.57;100602.65;104098;1310;138299;-63
2021/11/17 05:28:02;;;;;;;79.00;40.00;;;;;;;0.13;88.52;100601.11;104643;1314;112543;-63
2021/11/17 05:30:52;;;;;;;71.90;38.10;;;;;;;0.15;88.68;100600.11;104291;1314;108930;-63
2021/11/17 05:33:38;;;;;;;75.50;38.50;;;;;;;0.16;88.79;100598.77;104512;1312;138421;-64
2021/11/17 05:36:21;;;;;;;76.10;38.60;;;;;;;0.16;88.56;100596.88;103289;1311;96511;-63
2021/11/17 05:39:07;;;;;;;86.20;39.30;;;;;;;0.17;88.71;100593.30;103216;1310;139080;-63
2021/11/17 05:41:56;;;;;;;97.70;40.80;;;;;;;0.17;88.71;100589.88;103383;1313;111104;-63
2021/11/17 05:44:43;;;;;;;80.10;39.50;;;;;;;0.14;88.85;100593.26;103115;1315;138104;-63
2021/11/17 05:47:30;;;;;;;82.00;39.40;;;;;;;0.13;88.49;100587.09;103304;1311;108926;-63
2021/11/17 05:50:24;;;;;;;69.30;37.80;;;;;;;0.10;88.62;100591.84;104527;1312;139330;-63
2021/11/17 05:53:18;;;;;;;69.80;36.20;;;;;;;0.07;88.78;100595.55;103865;1312;96630;-64
2021/11/17 05:56:09;;;;;;;70.70;36.80;;;;;;;0.05;89.22;100595.02;103185;1311;138210;-62
2021/11/17 05:58:57;;;;;;;81.60;38.90;;;;;;;0.04;88.97;100599.27;104631;1312;109700;-63
2021/11/17 06:01:47;;;;;;;95.40;39.30;;;;;;;0.03;88.87;100603.02;103749;1313;138916;-63
2021/11/17 06:04:16;;;;;;;83.20;39.70;;;;;;;0.01;89.17;100606.75;103981;1309;94555;-63
2021/11/17 06:06:45;;;;;;;74.50;38.40;;;;;;;0.00;89.30;100606.22;103906;1313;96063;-63
2021/11/17 06:09:14;;;;;;;88.10;38.00;;;;;;;0.02;89.26;100610.70;103861;1313;138434;-62
2021/11/17 06:11:50;;;;;;;76.10;37.50;;;;;;;0.03;89.37;100618.06;104873;1310;110453;-63
2021/11/17 06:14:27;;;;;;;72.60;38.50;;;;;;;0.06;89.43;100618.61;104561;1311;138604;-63
2021/11/17 06:17:02;;;;;;;71.10;38.00;;;;;;;0.09;89.59;100620.36;103668;1311;96557;-63
2021/11/17 06:19:39;;;;;;;77.60;39.40;;;;;;;0.14;89.53;100625.23;103252;1312;138424;-63
2021/11/17 06:22:13;;;;;;;82.00;36.60;;;;;;;0.14;89.53;100617.55;103427;1312;109921;-63
2021/11/17 06:24:46;;;;;;;115.60;38.30;;;;;;;0.13;89.16;100617.36;103510;1311;108933;-63
2021/11/17 06:27:22;;;;;;;85.40;36.60;;;;;;;0.10;89.03;100609.96;104538;1311;137832;-63
2021/11/17 06:29:59;;;;;;;73.20;35.90;;;;;;;0.05;88.89;100613.48;104273;1311;94785;-63
2021/11/17 06:32:32;;;;;;;65.50;35.80;;;;;;;0.02;89.12;100607.10;103198;1311;138271;-63
2021/11/17 06:35:07;;;;;;;62.70;34.30;;;;;;;0.05;89.14;100609.54;103324;1312;111236;-65
2021/11/17 06:37:40;;;;;;;58.60;33.40;;;;;;;0.11;89.30;100605.70;104520;1311;139749;-63
2021/11/17 06:40:15;;;;;;;57.30;32.70;;;;;;;0.21;89.15;100600.73;104604;1311;108911;-63
2021/11/17 06:42:51;;;;;;;61.60;32.80;;;;;;;0.38;89.13;100602.17;103395;1311;96499;-63
2021/11/17 06:45:35;;;;;;;63.60;34.80;;;;;;;0.51;88.79;100597.24;103475;1310;137673;-62
2021/11/17 06:48:09;;;;;;;64.50;35.20;;;;;;;0.62;88.61;100595.69;103442;1312;111377;-63
2021/11/17 06:50:44;;;;;;;59.80;32.20;;;;;;;0.63;87.98;100601.86;104652;1310;139688;-64
2021/11/17 06:53:18;;;;;;;60.20;33.20;;;;;;;0.55;87.41;100605.19;104525;1312;107815;-63
2021/11/17 06:55:50;;;;;;;58.70;31.80;;;;;;;0.50;87.31;100598.08;103325;1310;139187;-63
2021/11/17 06:58:24;;;;;;;58.10;32.10;;;;;;;0.48;87.43;100602.16;104708;1311;95956;-63
2021/11/17 07:00:57;;;;;;;55.70;32.90;;;;;;;0.49;87.40;100602.67;104808;1312;110268;-64
2021/11/17 07:03:30;;;;;;;60.40;34.10;;;;;;;0.51;87.48;100596.20;104552;1312;138208;-64
2021/11/17 07:06:02;;;;;;;60.40;33.70;;;;;;;0.58;87.37;100597.52;103520;1311;107969;-63
2021/11/17 07:08:35;;;;;;;60.80;33.30;;;;;;;0.67;87.28;100598.48;104503;1311;138048;-64
2021/11/17 07:11:08;;;;;;;60.10;31.30;;;;;;;0.77;87.13;100598.45;103845;1310;97096;-64
2021/11/17 07:13:40;;;;;;;64.50;31.90;;;;;;;0.88;86.82;100597.05;103903;1311;138675;-64
2021/11/17 07:16:13;;;;;;;53.60;31.80;;;;;;;0.97;86.69;100591.52;103842;1312;109119;-63
2021/11/17 07:18:45;;;;;;;57.80;33.10;;;;;;;1.05;86.55;100593.33;103382;1312;109061;-64
2021/11/17 07:21:18;;;;;;;56.00;31.70;;;;;;;1.21;86.67;100600.87;103126;1311;138016;-63
2021/11/17 07:23:51;;;;;;;58.00;33.90;;;;;;;1.42;86.34;100595.11;103563;1310;96541;-63
2021/11/17 07:26:23;;;;;;;55.70;31.30;;;;;;;1.67;86.26;100598.27;104539;1311;137561;-64
2021/11/17 07:28:56;;;;;;;51.90;31.40;;;;;;;1.96;85.92;100598.88;104167;1312;109135;-63
2021/11/17 07:31:28;;;;;;;50.80;31.10;;;;;;;2.28;85.58;100601.88;103232;1315;139159;-63
2021/11/17 07:34:01;;;;;;;47.70;29.40;;;;;;;2.57;84.69;100594.86;104652;1312;94907;-64
2021/11/17 07:36:33;;;;;;;50.40;31.70;;;;;;;2.79;84.24;100598.75;104020;1312;96508;-63
2021/11/17 07:39:06;;;;;;;53.10;32.50;;;;;;;2.91;82.75;100606.38;103353;1312;138260;-63
2021/11/17 07:41:39;;;;;;;62.50;33.20;;;;;;;2.93;82.51;100607.59;103960;1309;108260;-63
2021/11/17 07:44:16;;;;;;;61.00;35.50;;;;;;;2.87;82.33;100602.75;104519;1311;139743;-64
2021/11/17 07:46:49;;;;;;;57.30;33.10;;;;;;;2.77;81.69;100606.47;104645;1311;95388;-64
2021/11/17 07:49:23;;;;;;;52.70;32.60;;;;;;;2.67;82.20;100609.33;104644;1311;138414;-63
2021/11/17 07:51:56;;;;;;;53.90;33.40;;;;;;;2.61;82.16;100603.63;104696;1312;109730;-64
2021/11/17 07:54:29;;;;;;;69.40;32.80;;;;;;;2.61;82.48;100596.42;104672;1311;109568;-64
2021/11/17 07:57:03;;;;;;;65.80;33.20;;;;;;;2.69;82.36;100594.41;104381;1308;138439;-64
2021/11/17 07:59:37;;;;;;;55.70;32.70;;;;;;;2.77;82.05;100595.48;104324;1306;94665;-64
2021/11/17 08:02:14;;;;;;;52.40;32.00;;;;;;;2.81;81.87;100593.09;104532;1312;137505;-64
2021/11/17 08:04:47;;;;;;;54.50;33.20;;;;;;;2.95;81.93;100597.98;103571;1310;112439;-63
2021/11/17 08:07:21;;;;;;;55.30;34.00;;;;;;;3.11;81.58;100608.17;104646;1312;138122;-64
2021/11/17 08:09:53;;;;;;;52.50;31.10;;;;;;;3.22;81.36;100608.04;104093;1307;252161;-64
2021/11/17 08:12:26;;;;;;;49.80;31.40;;;;;;;3.32;80.93;100614.43;104733;1308;95448;-64
2021/11/17 08:14:59;;;;;;;59.40;31.80;;;;;;;3.44;80.74;100612.58;104503;1309;138028;-64
2021/11/17 08:17:31;;;;;;;47.90;31.40;;;;;;;3.59;80.29;100616.22;103970;1306;109156;-64
2021/11/17 08:20:04;;;;;;;48.90;31.20;;;;;;;3.69;79.64;100616.41;104354;1311;138563;-64
2021/11/17 08:22:36;;;;;;;49.00;29.80;;;;;;;3.77;79.30;100619.17;103918;1313;108937;-64
2021/11/17 08:25:11;;;;;;;53.70;31.20;;;;;;;3.87;78.76;100617.48;104014;1312;139404;-65
2021/11/17 08:27:44;;;;;;;47.90;30.10;;;;;;;4.00;78.62;100620.41;103637;1312;96588;-64
2021/11/17 08:30:20;;;;;;;43.30;28.00;;;;;;;4.13;78.15;100622.64;104892;1312;111215;-65
2021/11/17 08:32:52;;;;;;;46.90;29.90;;;;;;;4.30;78.22;100620.05;104252;1310;138952;-64
2021/11/17 08:35:27;;;;;;;42.40;29.50;;;;;;;4.42;77.05;100620.21;104550;1311;109082;-63
2021/11/17 08:38:00;;;;;;;46.40;29.70;;;;;;;4.36;76.50;100625.73;104586;1312;138709;-65
2021/11/17 08:40:36;;;;;;;44.20;28.80;;;;;;;4.42;77.08;100621.08;104679;1312;94963;-63
2021/11/17 08:43:09;;;;;;;43.80;29.20;;;;;;;4.60;76.58;100628.63;104175;1312;111996;-63
2021/11/17 08:45:42;;;;;;;42.40;30.00;;;;;;;4.54;75.68;100626.58;104673;1312;137358;-63
2021/11/17 08:48:16;;;;;;;49.80;30.80;;;;;;;4.48;76.66;100621.75;104496;1306;110012;-64
2021/11/17 08:50:49;;;;;;;47.20;29.70;;;;;;;4.54;76.74;100626.41;103439;1312;139231;-65
2021/11/17 08:53:24;;;;;;;58.20;30.10;;;;;;;4.68;76.04;100622.25;103472;1311;96539;-65
2021/11/17 08:55:57;;;;;;;52.40;32.70;;;;;;;4.83;75.43;100625.98;103483;1311;138547;-63
2021/11/17 08:58:30;;;;;;;50.40;32.90;;;;;;;5.02;74.81;100619.55;104765;1312;108490;-64
2021/11/17 09:01:04;;;;;;;44.70;29.50;;;;;;;5.24;74.66;100617.58;104707;1311;108752;-63
2021/11/17 09:03:38;;;;;;;44.20;29.00;;;;;;;5.46;74.01;100620.22;104418;1311;137905;-65
2021/11/17 09:06:13;;;;;;;44.10;30.30;;;;;;;5.59;73.81;100618.95;103820;1311;96510;-65
2021/11/17 09:08:46;;;;;;;41.30;30.20;;;;;;;5.67;73.80;100615.80;104670;1311;139047;-65
2021/11/17 09:11:20;;;;;;;41.50;28.60;;;;;;;5.71;73.85;100611.96;104803;1311;108855;-64
2021/11/17 09:13:52;;;;;;;44.50;29.70;;;;;;;5.87;73.84;100609.63;103582;1311;138971;-64
2021/11/17 09:16:29;;;;;;;41.10;28.80;;;;;;;5.93;73.44;100601.50;104814;1313;94699;-64
2021/11/17 09:19:04;;;;;;;41.60;28.30;;;;;;;5.92;72.85;100603.23;103912;1315;95945;-64
2021/11/17 09:21:38;;;;;;;39.80;26.90;;;;;;;5.86;72.94;100599.27;104648;1307;139274;-64
2021/11/17 09:24:11;;;;;;;37.40;25.40;;;;;;;6.00;73.18;100593.50;103435;1311;108954;-63
2021/11/17 09:26:46;;;;;;;37.00;25.90;;;;;;;6.21;72.58;100594.52;104725;1311;138277;-64
2021/11/17 09:29:20;;;;;;;36.20;26.50;;;;;;;6.26;71.76;100594.30;104572;1309;97583;-63
2021/11/17 09:31:52;;;;;;;40.30;26.80;;;;;;;6.22;71.42;100589.17;104499;1311;139111;-64
2021/11/17 09:34:24;;;;;;;36.20;26.40;;;;;;;6.22;71.16;100585.70;104810;1310;112176;-64
2021/11/17 09:36:57;;;;;;;40.90;27.80;;;;;;;6.24;71.31;100580.86;104804;1312;108946;-64
2021/11/17 09:39:31;;;;;;;42.30;27.60;;;;;;;6.35;70.63;100579.55;104595;1312;137961;-65
2021/11/17 09:42:05;;;;;;;41.30;27.30;;;;;;;6.49;70.77;100579.94;103539;1310;96507;-63
2021/11/17 09:44:42;;;;;;;40.00;26.50;;;;;;;6.59;70.81;100574.82;104725;1310;137244;-64
2021/11/17 09:47:18;;;;;;;44.70;29.00;;;;;;;6.81;70.47;100566.79;103725;1314;111296;-64
2021/11/17 09:49:55;;;;;;;39.50;27.70;;;;;;;7.06;70.14;100567.19;104661;1311;139778;-64
2021/11/17 09:52:35;;;;;;;39.20;27.50;;;;;;;7.22;69.81;100573.04;103779;1312;108795;-65
2021/11/17 09:55:13;;;;;;;34.60;25.10;;;;;;;7.33;69.57;100560.94;104397;1315;94812;-65
2021/11/17 09:57:48;;;;;;;38.80;24.90;;;;;;;7.48;69.41;100555.20;103747;1311;138095;-65
2021/11/17 10:00:24;;;;;;;36.20;25.00;;;;;;;7.77;68.94;100544.37;103888;1318;111115;-64
2021/11/17 10:03:01;;;;;;;37.40;26.90;;;;;;;7.94;67.85;100544.80;104521;1306;138371;-64
2021/11/17 10:06:13;;;;;;;36.90;26.20;;;;;;;7.93;68.11;100555.20;103633;1307;108918;-64
2021/11/17 10:14:32;;;;;;;39.90;26.40;;;;;;;8.24;67.97;100545.83;104035;1312;138761;-65
2021/11/17 10:17:25;;;;;;;35.90;26.80;;;;;;;8.42;67.97;100545.70;104791;1309;110901;-65
2021/11/17 10:20:10;;;;;;;37.20;26.40;;;;;;;8.53;66.47;100543.41;104698;1311;138595;-66
2021/11/17 10:22:45;;;;;;;38.80;25.90;;;;;;;8.41;65.92;100543.28;104784;1311;95896;-65
2021/11/17 10:25:22;;;;;;;37.30;26.80;;;;;;;8.33;65.99;100548.10;104857;1311;94662;-65
2021/11/17 10:27:59;;;;;;;36.40;26.60;;;;;;;8.18;65.67;100545.08;103391;1311;138943;-64
2021/11/17 10:30:37;;;;;;;37.20;26.80;;;;;;;7.91;66.03;100540.50;104778;1308;109002;-66
2021/11/17 10:33:15;;;;;;;38.40;28.20;;;;;;;7.73;66.76;100548.93;103893;1310;137471;-64
2021/11/17 10:35:58;;;;;;;45.90;28.60;;;;;;;7.57;67.22;100546.77;103719;1312;96491;-65
2021/11/17 10:38:33;;;;;;;38.90;27.50;;;;;;;7.51;67.81;100546.31;103510;1311;137749;-64
2021/11/17 10:41:17;;;;;;;40.60;27.30;;;;;;;7.45;68.05;100547.64;103884;1310;110193;-65
2021/11/17 10:43:56;;;;;;;38.10;25.50;;;;;;;7.30;67.75;100552.52;103466;1311;138936;-65
2021/11/17 10:46:33;;;;;;;46.80;30.80;;;;;;;7.18;68.61;100548.17;103965;1311;107865;-67
2021/11/17 10:49:13;;;;;;;44.00;28.50;;;;;;;7.21;69.50;100548.15;103322;1311;96508;-65
2021/11/17 10:52:05;;;;;;;39.70;27.10;;;;;;;7.19;69.41;100547.81;103221;1312;137950;-67
2021/11/17 10:54:47;;;;;;;40.80;27.60;;;;;;;7.09;68.92;100543.63;104726;1309;111294;-65
2021/11/17 10:57:23;;;;;;;39.00;26.60;;;;;;;6.95;69.23;100543.98;104243;1311;138056;-66
2021/11/17 10:59:59;;;;;;;45.70;28.00;;;;;;;6.85;69.64;100540.65;103814;1310;109058;-65
2021/11/17 11:02:31;;;;;;;44.10;29.00;;;;;;;6.75;70.01;100544.58;103893;1315;139094;-66
2021/11/17 11:05:07;;;;;;;46.20;28.20;;;;;;;6.63;70.21;100538.83;104836;1311;94628;-66
2021/11/17 11:07:45;;;;;;;42.40;26.40;;;;;;;6.58;70.47;100540.09;104672;1309;138296;-63
2021/11/17 11:10:23;;;;;;;41.40;25.80;;;;;;;6.53;70.35;100538.95;104058;1312;109248;-66
2021/11/17 11:12:57;;;;;;;40.90;27.70;;;;;;;6.47;70.50;100537.12;104608;1310;108209;-66
2021/11/17 11:15:32;;;;;;;43.10;28.10;;;;;;;6.39;70.64;100537.55;104695;1309;138291;-66
2021/11/17 11:18:44;;;;;;;46.90;28.70;;;;;;;6.31;70.74;100536.77;104835;1309;95934;-66
2021/11/17 11:21:18;;;;;;;43.70;28.30;;;;;;;6.29;71.44;100540.09;103971;1315;138365;-66
2021/11/17 11:24:13;;;;;;;41.50;28.50;;;;;;;6.29;71.55;100538.17;104847;1307;108761;-64
2021/11/17 11:27:13;;;;;;;45.60;29.30;;;;;;;6.27;71.56;100535.94;104059;1316;138409;-68
2021/11/17 11:29:47;;;;;;;43.70;27.50;;;;;;;6.23;71.63;100528.21;104823;1309;94768;-66
2021/11/17 11:32:53;;;;;;;41.50;26.40;;;;;;;6.22;71.87;100520.63;104077;1304;138308;-65
2021/11/17 11:35:26;;;;;;;43.10;26.50;;;;;;;6.24;72.02;100517.14;103434;1312;111194;-65
2021/11/17 11:38:07;;;;;;;51.90;26.70;;;;;;;6.28;72.18;100509.86;104585;1312;138201;-65
2021/11/17 11:41:02;;;;;;;56.10;29.70;;;;;;;6.32;72.27;100508.09;104339;1306;108474;-65
2021/11/17 11:43:35;;;;;;;57.70;33.70;;;;;;;6.33;72.30;100509.47;103362;1311;138278;-65
2021/11/17 11:46:35;;;;;;;50.50;28.20;;;;;;;6.34;72.30;100506.00;104026;1315;96067;-65
2021/11/17 11:49:11;;;;;;;44.60;27.90;;;;;;;6.38;72.40;100501.12;104791;1312;110302;-66
2021/11/17 11:52:07;;;;;;;51.10;30.80;;;;;;;6.46;72.47;100503.09;103425;1311;137475;-69
2021/11/17 11:55:12;;;;;;;50.50;29.40;;;;;;;6.66;73.13;100500.95;103364;1309;107941;-65
2021/11/17 11:57:47;;;;;;;47.20;29.80;;;;;;;6.87;72.61;100503.98;103325;1309;137068;-65
2021/11/17 12:00:24;;;;;;;41.70;27.00;;;;;;;6.96;72.03;100501.96;104896;1309;94710;-64
2021/11/17 12:02:58;;;;;;;41.70;25.90;;;;;;;7.00;71.84;100497.76;104608;1311;138923;-65
2021/11/17 12:05:44;;;;;;;42.80;26.20;;;;;;;7.02;71.90;100495.69;103784;1311;109168;-64
2021/11/17 12:08:20;;;;;;;45.90;27.10;;;;;;;7.03;71.77;100494.11;104477;1309;138556;-63
2021/11/17 12:11:07;;;;;;;43.70;27.20;;;;;;;7.00;71.83;100491.36;103337;1311;96497;-65
2021/11/17 12:13:43;;;;;;;51.70;28.30;;;;;;;7.02;71.87;100493.94;103774;1318;137839;-63
2021/11/17 12:16:21;;;;;;;43.80;28.80;;;;;;;7.03;71.82;100488.39;104794;1306;111454;-62
2021/11/17 12:18:57;;;;;;;49.70;30.40;;;;;;;7.04;71.99;100483.37;104034;1312;109306;-64
2021/11/17 12:21:32;;;;;;;48.40;30.70;;;;;;;7.04;72.00;100480.60;104720;1311;138082;-63
2021/11/17 12:24:08;;;;;;;47.80;30.30;;;;;;;6.99;71.82;100475.46;103821;1312;95592;-63
2021/11/17 12:26:43;;;;;;;47.50;30.40;;;;;;;6.95;71.78;100473.10;104753;1310;138019;-64
2021/11/17 12:29:19;;;;;;;44.00;28.30;;;;;;;6.93;71.86;100469.50;104614;1310;111196;-63
2021/11/17 12:31:56;;;;;;;48.40;29.50;;;;;;;6.95;71.95;100470.34;104623;1311;140375;-63
2021/11/17 12:34:31;;;;;;;40.30;27.70;;;;;;;7.03;71.92;100465.73;104208;1311;107931;-63
2021/11/17 12:37:07;;;;;;;47.60;28.70;;;;;;;7.15;72.03;100461.92;104830;1312;96028;-63
2021/11/17 12:39:48;;;;;;;;;;;;;;;7.28;72.05;100452.39;104075;1307;138980;-64
2021/11/17 12:42:30;;;;;;;51.40;29.10;;;;;;;7.39;72.00;100452.40;104760;1311;111158;-63
2021/11/17 12:45:14;;;;;;;49.30;29.80;;;;;;;7.49;71.68;100456.54;104557;1308;138803;-63
2021/11/17 12:47:53;;;;;;;48.40;31.00;;;;;;;7.48;71.13;100457.94;104811;1308;109010;-63
2021/11/17 12:50:30;;;;;;;48.80;31.50;;;;;;;7.43;71.14;100453.04;104444;1308;138136;-63
2021/11/17 12:53:08;;;;;;;47.10;29.60;;;;;;;7.36;71.10;100449.67;104692;1311;95331;-64
2021/11/17 12:55:46;;;;;;;46.20;30.90;;;;;;;7.31;71.49;100443.00;104696;1309;138286;-64
2021/11/17 12:58:22;;;;;;;44.30;30.60;;;;;;;7.27;71.29;100446.17;104793;1308;108963;-64
2021/11/17 13:01:13;;;;;;;48.10;31.30;;;;;;;7.14;71.41;100440.85;104860;1309;106976;-63
2021/11/17 13:04:02;;;;;;;51.20;32.90;;;;;;;6.96;71.57;100438.35;104212;1312;138044;-62
2021/11/17 13:06:45;;;;;;;54.20;33.80;;;;;;;6.79;72.09;100438.06;104179;1314;94850;-63
2021/11/17 13:09:20;;;;;;;54.60;33.10;;;;;;;6.65;72.25;100439.46;103987;1310;137552;-62
2021/11/17 13:12:15;;;;;;;50.90;33.00;;;;;;;6.50;72.87;100434.13;103490;1316;108926;-63
2021/11/17 13:15:11;;;;;;;48.20;30.10;;;;;;;6.38;73.30;100431.00;103197;1312;138249;-63
2021/11/17 13:17:48;;;;;;;51.70;30.60;;;;;;;6.28;73.46;100425.94;103363;1310;97253;-63
2021/11/17 13:20:25;;;;;;;;;;;;;;;6.16;73.72;100432.64;103372;1311;137913;-62
2021/11/17 13:23:16;;;;;;;52.50;33.50;;;;;;;6.03;74.10;100433.11;103424;1314;111430;-63
2021/11/17 13:25:54;;;;;;;57.40;35.70;;;;;;;5.88;74.60;100434.29;103357;1310;138473;-62
2021/11/17 13:28:44;;;;;;;55.30;34.10;;;;;;;5.74;74.99;100440.12;103403;1305;109371;-62
2021/11/17 13:31:33;;;;;;;53.50;33.60;;;;;;;5.59;75.40;100440.42;103423;1311;96523;-63
2021/11/17 13:34:09;;;;;;;50.50;32.40;;;;;;;5.45;75.72;100436.23;104738;1306;138697;-63
2021/11/17 13:36:48;;;;;;;53.70;33.80;;;;;;;5.35;76.22;100431.82;104819;1310;111257;-63
2021/11/17 13:39:23;;;;;;;53.70;35.10;;;;;;;5.28;76.39;100427.05;103804;1317;139118;-63
2021/11/17 13:41:56;;;;;;;61.40;37.00;;;;;;;5.20;76.90;100432.96;104864;1311;107964;-63
2021/11/17 13:44:29;;;;;;;57.50;35.60;;;;;;;5.14;77.04;100435.77;104659;1310;137432;-63
2021/11/17 13:47:22;;;;;;;57.40;34.40;;;;;;;5.08;77.36;100437.20;104826;1310;96007;-62
2021/11/17 13:49:57;;;;;;;53.20;33.60;;;;;;;5.05;77.34;100437.05;104649;1312;139284;-63
2021/11/17 13:52:32;;;;;;;59.90;33.60;;;;;;;5.04;77.47;100436.20;104831;1312;108897;-63
2021/11/17 13:55:08;;;;;;;55.80;35.60;;;;;;;5.05;77.65;100438.77;104799;1312;108895;-63
2021/11/17 13:57:43;;;;;;;61.20;37.90;;;;;;;5.05;77.54;100433.27;104268;1311;137707;-63
2021/11/17 14:00:19;;;;;;;62.00;38.80;;;;;;;5.04;77.73;100434.13;103399;1312;96919;-62
2021/11/17 14:02:53;;;;;;;53.30;34.00;;;;;;;5.02;77.86;100441.20;104699;1310;137459;-63
2021/11/17 14:05:27;;;;;;;59.20;34.60;;;;;;;4.99;78.24;100442.92;103644;1312;108809;-65
2021/11/17 14:08:00;;;;;;;56.10;34.80;;;;;;;4.95;78.43;100441.77;103308;1311;138662;-65
2021/11/17 14:10:33;;;;;;;60.40;34.80;;;;;;;4.93;78.35;100443.33;104607;1311;95985;-65
2021/11/17 14:13:07;;;;;;;69.40;36.70;;;;;;;4.91;78.20;100445.41;104853;1310;94674;-62
2021/11/17 14:15:40;;;;;;;59.50;37.90;;;;;;;4.90;78.57;100445.76;103580;1312;138106;-64
2021/11/17 14:18:14;;;;;;;61.30;39.40;;;;;;;4.90;78.48;100441.80;103450;1309;109015;-64
2021/11/17 14:20:47;;;;;;;54.50;35.60;;;;;;;4.87;78.72;100434.23;104070;1312;137760;-65
2021/11/17 14:23:20;;;;;;;57.20;35.50;;;;;;;4.82;78.47;100436.14;103434;1311;96976;-64
2021/11/17 14:25:52;;;;;;;61.80;38.10;;;;;;;4.77;78.44;100432.20;103521;1309;138972;-63
2021/11/17 14:28:28;;;;;;;63.60;37.60;;;;;;;4.74;78.82;100434.30;104064;1310;111132;-65
2021/11/17 14:31:04;;;;;;;59.10;38.10;;;;;;;4.68;78.91;100437.27;104319;1312;109803;-64
2021/11/17 14:33:37;;;;;;;59.60;38.40;;;;;;;4.60;79.15;100435.73;104735;1311;139016;-63
2021/11/17 14:36:12;;;;;;;60.50;38.20;;;;;;;4.52;78.93;100433.55;103859;1311;96528;-65